createdAt,value
2017-11-19T00:00:47.993Z,1009.5
2017-11-19T00:01:49.605Z,1009.5
2017-11-19T00:02:51.219Z,1009.6
2017-11-19T00:03:52.834Z,1009.6
2017-11-19T00:04:54.443Z,1009.6
2017-11-19T00:05:56.056Z,1009.6
2017-11-19T00:06:57.668Z,1009.6
2017-11-19T00:07:59.289Z,1009.6
2017-11-19T00:09:00.896Z,1009.5
2017-11-19T00:10:02.508Z,1009.5
2017-11-19T00:11:04.122Z,1009.6
2017-11-19T00:12:05.735Z,1009.6
2017-11-19T00:13:07.346Z,1009.6
2017-11-19T00:14:08.957Z,1009.6
2017-11-19T00:15:10.578Z,1009.6
2017-11-19T00:16:12.190Z,1009.5
2017-11-19T00:17:13.810Z,1009.5
2017-11-19T00:18:15.417Z,1009.5
2017-11-19T00:19:17.033Z,1009.4
2017-11-19T00:20:18.645Z,1009.5
2017-11-19T00:21:20.260Z,1009.5
2017-11-19T00:22:21.869Z,1009.5
2017-11-19T00:23:23.489Z,1009.5
2017-11-19T00:24:25.099Z,1009.5
2017-11-19T00:25:26.713Z,1009.5
2017-11-19T00:26:28.326Z,1009.4
2017-11-19T00:27:29.952Z,1009.4
2017-11-19T00:28:31.547Z,1009.4
2017-11-19T00:29:33.159Z,1009.5
2017-11-19T00:30:34.773Z,1009.5
2017-11-19T00:31:36.387Z,1009.4
2017-11-19T00:32:37.998Z,1009.5
2017-11-19T00:33:39.611Z,1009.4
2017-11-19T00:34:41.224Z,1009.4
2017-11-19T00:35:42.836Z,1009.4
2017-11-19T00:36:44.449Z,1009.4
2017-11-19T00:37:46.061Z,1009.4
2017-11-19T00:38:47.674Z,1009.5
2017-11-19T00:39:49.290Z,1009.4
2017-11-19T00:40:50.900Z,1009.5
2017-11-19T00:41:52.513Z,1009.5
2017-11-19T00:42:54.124Z,1009.5
2017-11-19T00:43:55.737Z,1009.5
2017-11-19T00:44:57.348Z,1009.6
2017-11-19T00:45:58.960Z,1009.5
2017-11-19T00:47:00.573Z,1009.5
2017-11-19T00:48:02.188Z,1009.6
2017-11-19T00:49:03.800Z,1009.6
2017-11-19T00:50:05.409Z,1009.6
2017-11-19T00:51:07.023Z,1009.6
2017-11-19T00:52:08.639Z,1009.6
2017-11-19T00:53:10.250Z,1009.6
2017-11-19T00:54:11.867Z,1009.7
2017-11-19T00:55:13.478Z,1009.7
2017-11-19T00:56:15.091Z,1009.6
2017-11-19T00:57:16.704Z,1009.7
2017-11-19T00:58:18.314Z,1009.7
2017-11-19T00:59:19.931Z,1009.7
2017-11-19T01:00:21.539Z,1009.6
2017-11-19T01:01:23.155Z,1009.6
2017-11-19T01:02:24.767Z,1009.5
2017-11-19T01:03:26.383Z,1009.4
2017-11-19T01:04:27.990Z,1009.4
2017-11-19T01:05:29.599Z,1009.5
2017-11-19T01:06:31.212Z,1009.5
2017-11-19T01:07:32.825Z,1009.5
2017-11-19T01:08:34.442Z,1009.5
2017-11-19T01:09:36.051Z,1009.5
2017-11-19T01:10:37.664Z,1009.5
2017-11-19T01:11:39.270Z,1009.5
2017-11-19T01:12:40.886Z,1009.5
2017-11-19T01:13:42.494Z,1009.5
2017-11-19T01:14:44.105Z,1009.5
2017-11-19T01:15:45.718Z,1009.5
2017-11-19T01:16:47.328Z,1009.5
2017-11-19T01:17:48.938Z,1009.5
2017-11-19T01:18:50.547Z,1009.5
2017-11-19T01:19:52.156Z,1009.6
2017-11-19T01:20:53.767Z,1009.6
2017-11-19T01:21:55.571Z,1009.6
2017-11-19T01:22:57.421Z,1009.6
2017-11-19T01:23:59.555Z,1009.6
2017-11-19T01:25:01.181Z,1009.6
2017-11-19T01:26:02.958Z,1009.6
2017-11-19T01:27:04.580Z,1009.6
2017-11-19T01:28:06.197Z,1009.7
2017-11-19T01:29:07.807Z,1009.6
2017-11-19T01:30:09.704Z,1009.6
2017-11-19T01:31:11.467Z,1009.6
2017-11-19T01:32:13.114Z,1009.5
2017-11-19T01:33:14.851Z,1009.5
2017-11-19T01:34:16.478Z,1009.6
2017-11-19T01:35:18.190Z,1009.6
2017-11-19T01:36:19.808Z,1009.6
2017-11-19T01:37:21.439Z,1009.5
2017-11-19T01:38:23.029Z,1009.6
2017-11-19T01:39:24.640Z,1009.6
2017-11-19T01:40:26.246Z,1009.6
2017-11-19T01:41:27.857Z,1009.6
2017-11-19T01:42:29.471Z,1009.6
2017-11-19T01:43:31.089Z,1009.6
2017-11-19T01:44:32.705Z,1009.6
2017-11-19T01:45:34.317Z,1009.6
2017-11-19T01:46:35.921Z,1009.6
2017-11-19T01:47:37.541Z,1009.6
2017-11-19T01:48:39.149Z,1009.6
2017-11-19T01:49:40.771Z,1009.6
2017-11-19T01:50:42.370Z,1009.7
2017-11-19T01:51:44.166Z,1009.7
2017-11-19T01:52:45.782Z,1009.7
2017-11-19T01:53:47.393Z,1009.7
2017-11-19T01:54:48.999Z,1009.7
2017-11-19T01:55:50.603Z,1009.7
2017-11-19T01:56:52.218Z,1009.7
2017-11-19T01:57:54.084Z,1009.7
2017-11-19T01:58:55.738Z,1009.8
2017-11-19T01:59:57.399Z,1009.8
2017-11-19T02:00:59.010Z,1009.8
2017-11-19T02:02:00.825Z,1009.8
2017-11-19T02:03:02.458Z,1009.7
2017-11-19T02:04:04.425Z,1009.7
2017-11-19T02:05:06.068Z,1009.7
2017-11-19T02:06:07.684Z,1009.7
2017-11-19T02:07:09.292Z,1009.6
2017-11-19T02:08:10.906Z,1009.7
2017-11-19T02:09:12.515Z,1009.7
2017-11-19T02:10:14.128Z,1009.7
2017-11-19T02:11:15.740Z,1009.8
2017-11-19T02:12:17.353Z,1009.8
2017-11-19T02:13:18.966Z,1009.8
2017-11-19T02:14:20.574Z,1009.8
2017-11-19T02:15:22.186Z,1009.8
2017-11-19T02:16:23.796Z,1009.7
2017-11-19T02:17:25.462Z,1009.7
2017-11-19T02:18:27.230Z,1009.7
2017-11-19T02:19:28.851Z,1009.7
2017-11-19T02:20:30.504Z,1009.7
2017-11-19T02:21:32.109Z,1009.7
2017-11-19T02:22:33.724Z,1009.7
2017-11-19T02:23:35.664Z,1009.7
2017-11-19T02:24:37.271Z,1009.7
2017-11-19T02:25:38.889Z,1009.7
2017-11-19T02:26:40.494Z,1009.7
2017-11-19T02:27:42.106Z,1009.7
2017-11-19T02:28:43.718Z,1009.7
2017-11-19T02:29:45.328Z,1009.8
2017-11-19T02:30:46.939Z,1009.8
2017-11-19T02:31:48.542Z,1009.8
2017-11-19T02:32:50.159Z,1009.8
2017-11-19T02:33:51.765Z,1009.8
2017-11-19T02:34:53.376Z,1009.8
2017-11-19T02:35:54.986Z,1009.8
2017-11-19T02:36:56.600Z,1009.9
2017-11-19T02:37:58.211Z,1009.8
2017-11-19T02:38:59.822Z,1009.8
2017-11-19T02:40:01.460Z,1009.7
2017-11-19T02:41:03.076Z,1009.8
2017-11-19T02:42:04.687Z,1009.8
2017-11-19T02:43:06.295Z,1009.8
2017-11-19T02:44:07.904Z,1009.8
2017-11-19T02:45:09.518Z,1009.8
2017-11-19T02:46:11.134Z,1009.8
2017-11-19T02:47:12.743Z,1009.8
2017-11-19T02:48:14.534Z,1009.8
2017-11-19T02:49:16.170Z,1009.8
2017-11-19T02:50:17.843Z,1009.8
2017-11-19T02:51:19.459Z,1009.8
2017-11-19T02:52:21.069Z,1009.8
2017-11-19T02:53:22.685Z,1009.7
2017-11-19T02:54:24.285Z,1009.8
2017-11-19T02:55:25.897Z,1009.8
2017-11-19T02:56:27.510Z,1009.8
2017-11-19T02:57:29.120Z,1009.8
2017-11-19T02:58:30.729Z,1009.8
2017-11-19T02:59:32.339Z,1009.8
2017-11-19T03:00:34.263Z,1009.8
2017-11-19T03:01:35.885Z,1009.8
2017-11-19T03:02:37.496Z,1009.8
2017-11-19T03:03:39.106Z,1009.8
2017-11-19T03:04:40.717Z,1009.9
2017-11-19T03:05:42.325Z,1009.8
2017-11-19T03:06:43.935Z,1009.8
2017-11-19T03:07:45.542Z,1009.8
2017-11-19T03:08:47.155Z,1009.8
2017-11-19T03:09:48.975Z,1009.8
2017-11-19T03:10:50.549Z,1009.8
2017-11-19T03:11:52.159Z,1009.8
2017-11-19T03:12:53.772Z,1009.9
2017-11-19T03:13:55.380Z,1009.8
2017-11-19T03:14:56.989Z,1009.8
2017-11-19T03:15:58.598Z,1009.8
2017-11-19T03:17:00.289Z,1009.8
2017-11-19T03:18:01.895Z,1009.8
2017-11-19T03:19:03.515Z,1009.8
2017-11-19T03:20:05.123Z,1009.8
2017-11-19T03:21:06.734Z,1009.8
2017-11-19T03:22:08.347Z,1009.8
2017-11-19T03:23:09.956Z,1009.9
2017-11-19T03:24:11.570Z,1009.9
2017-11-19T03:25:13.181Z,1009.9
2017-11-19T03:26:14.792Z,1009.9
2017-11-19T03:27:16.434Z,1009.9
2017-11-19T03:28:18.050Z,1009.9
2017-11-19T03:29:19.659Z,1009.9
2017-11-19T03:30:21.329Z,1010.0
2017-11-19T03:31:22.939Z,1009.9
2017-11-19T03:32:24.548Z,1009.8
2017-11-19T03:33:26.154Z,1009.8
2017-11-19T03:34:27.762Z,1009.8
2017-11-19T03:35:29.371Z,1009.8
2017-11-19T03:36:31.036Z,1009.8
2017-11-19T03:37:33.238Z,1009.8
2017-11-19T03:38:34.886Z,1009.8
2017-11-19T03:39:36.503Z,1009.8
2017-11-19T03:40:38.814Z,1009.7
2017-11-19T03:41:40.468Z,1009.8
2017-11-19T03:42:42.505Z,1009.8
2017-11-19T03:43:44.152Z,1009.8
2017-11-19T03:44:45.824Z,1009.7
2017-11-19T03:45:47.430Z,1009.7
2017-11-19T03:46:49.240Z,1009.7
2017-11-19T03:47:50.857Z,1009.8
2017-11-19T03:48:53.279Z,1009.8
2017-11-19T03:49:54.931Z,1009.8
2017-11-19T03:50:56.543Z,1009.9
2017-11-19T03:51:58.152Z,1009.9
2017-11-19T03:53:00.406Z,1009.9
2017-11-19T03:54:02.021Z,1009.9
2017-11-19T03:55:03.637Z,1009.9
2017-11-19T03:56:05.435Z,1009.9
2017-11-19T03:57:07.064Z,1009.9
2017-11-19T03:58:08.749Z,1009.9
2017-11-19T03:59:10.364Z,1009.8
2017-11-19T04:00:12.023Z,1009.8
2017-11-19T04:01:14.248Z,1009.8
2017-11-19T04:02:16.258Z,1009.8
2017-11-19T04:03:18.805Z,1009.8
2017-11-19T04:04:20.405Z,1009.8
2017-11-19T04:05:22.678Z,1009.8
2017-11-19T04:06:24.274Z,1009.9
2017-11-19T04:07:26.634Z,1009.9
2017-11-19T04:08:28.254Z,1010.0
2017-11-19T04:09:29.865Z,1010.0
2017-11-19T04:10:31.481Z,1010.0
2017-11-19T04:11:33.123Z,1010.0
2017-11-19T04:12:34.729Z,1010.0
2017-11-19T04:13:36.378Z,1010.0
2017-11-19T04:14:37.989Z,1010.0
2017-11-19T04:15:39.603Z,1010.0
2017-11-19T04:16:41.218Z,1010.0
2017-11-19T04:17:42.819Z,1010.0
2017-11-19T04:18:44.429Z,1010.0
2017-11-19T04:19:46.038Z,1010.0
2017-11-19T04:20:47.666Z,1010.1
2017-11-19T04:21:49.340Z,1010.1
2017-11-19T04:22:51.006Z,1010.0
2017-11-19T04:23:52.616Z,1010.1
2017-11-19T04:24:54.226Z,1010.1
2017-11-19T04:25:56.212Z,1010.1
2017-11-19T04:26:57.828Z,1010.1
2017-11-19T04:27:59.961Z,1010.1
2017-11-19T04:29:02.422Z,1010.2
2017-11-19T04:30:04.073Z,1010.2
2017-11-19T04:31:05.700Z,1010.2
2017-11-19T04:32:07.368Z,1010.2
2017-11-19T04:33:09.002Z,1010.2
2017-11-19T04:34:11.489Z,1010.2
2017-11-19T04:35:13.930Z,1010.1
2017-11-19T04:36:15.485Z,1010.1
2017-11-19T04:37:17.098Z,1010.1
2017-11-19T04:38:18.720Z,1010.1
2017-11-19T04:39:20.321Z,1010.0
2017-11-19T04:40:21.930Z,1010.1
2017-11-19T04:41:23.540Z,1010.1
2017-11-19T04:42:25.149Z,1010.1
2017-11-19T04:43:26.761Z,1010.1
2017-11-19T04:44:28.369Z,1010.1
2017-11-19T04:45:29.978Z,1010.2
2017-11-19T04:46:31.931Z,1010.2
2017-11-19T04:47:33.524Z,1010.2
2017-11-19T04:48:35.138Z,1010.1
2017-11-19T04:49:36.760Z,1010.2
2017-11-19T04:50:38.374Z,1010.2
2017-11-19T04:51:39.984Z,1010.2
2017-11-19T04:52:41.593Z,1010.2
2017-11-19T04:53:43.208Z,1010.2
2017-11-19T04:54:44.809Z,1010.2
2017-11-19T04:55:46.450Z,1010.2
2017-11-19T04:56:48.064Z,1010.2
2017-11-19T04:57:49.676Z,1010.2
2017-11-19T04:58:51.286Z,1010.2
2017-11-19T04:59:52.896Z,1010.2
2017-11-19T05:00:54.506Z,1010.2
2017-11-19T05:01:56.112Z,1010.2
2017-11-19T05:02:57.723Z,1010.2
2017-11-19T05:03:59.331Z,1010.2
2017-11-19T05:05:00.949Z,1010.2
2017-11-19T05:06:02.558Z,1010.2
2017-11-19T05:07:04.176Z,1010.2
2017-11-19T05:08:05.780Z,1010.2
2017-11-19T05:09:07.389Z,1010.2
2017-11-19T05:10:08.999Z,1010.2
2017-11-19T05:11:10.609Z,1010.2
2017-11-19T05:12:12.239Z,1010.3
2017-11-19T05:13:13.839Z,1010.2
2017-11-19T05:14:15.857Z,1010.2
2017-11-19T05:15:17.444Z,1010.2
2017-11-19T05:16:19.053Z,1010.3
2017-11-19T05:17:20.663Z,1010.3
2017-11-19T05:18:22.272Z,1010.3
2017-11-19T05:19:23.897Z,1010.3
2017-11-19T05:20:25.497Z,1010.3
2017-11-19T05:21:27.105Z,1010.3
2017-11-19T05:22:28.716Z,1010.2
2017-11-19T05:23:30.325Z,1010.2
2017-11-19T05:24:31.935Z,1010.2
2017-11-19T05:25:33.545Z,1010.2
2017-11-19T05:26:35.154Z,1010.2
2017-11-19T05:27:36.780Z,1010.2
2017-11-19T05:28:38.384Z,1010.2
2017-11-19T05:29:39.994Z,1010.3
2017-11-19T05:30:41.604Z,1010.2
2017-11-19T05:31:43.216Z,1010.3
2017-11-19T05:32:44.824Z,1010.4
2017-11-19T05:33:46.434Z,1010.3
2017-11-19T05:34:48.045Z,1010.4
2017-11-19T05:35:49.657Z,1010.3
2017-11-19T05:36:51.264Z,1010.4
2017-11-19T05:37:52.874Z,1010.3
2017-11-19T05:38:54.804Z,1010.4
2017-11-19T05:39:56.376Z,1010.4
2017-11-19T05:40:57.987Z,1010.4
2017-11-19T05:41:59.615Z,1010.4
2017-11-19T05:43:01.247Z,1010.4
2017-11-19T05:44:02.829Z,1010.4
2017-11-19T05:45:04.441Z,1010.5
2017-11-19T05:46:06.050Z,1010.5
2017-11-19T05:47:07.657Z,1010.5
2017-11-19T05:48:09.267Z,1010.5
2017-11-19T05:49:11.089Z,1010.5
2017-11-19T05:50:13.009Z,1010.5
2017-11-19T05:51:14.610Z,1010.4
2017-11-19T05:52:16.221Z,1010.5
2017-11-19T05:53:17.989Z,1010.5
2017-11-19T05:54:19.591Z,1010.5
2017-11-19T05:55:21.539Z,1010.5
2017-11-19T05:56:23.112Z,1010.4
2017-11-19T05:57:25.002Z,1010.4
2017-11-19T05:58:26.623Z,1010.5
2017-11-19T05:59:28.231Z,1010.4
2017-11-19T06:00:29.839Z,1010.5
2017-11-19T06:01:31.448Z,1010.5
2017-11-19T06:02:33.059Z,1010.5
2017-11-19T06:03:34.713Z,1010.5
2017-11-19T06:04:36.487Z,1010.5
2017-11-19T06:05:38.452Z,1010.5
2017-11-19T06:06:40.055Z,1010.4
2017-11-19T06:07:42.408Z,1010.4
2017-11-19T06:08:44.051Z,1010.4
2017-11-19T06:09:46.156Z,1010.5
2017-11-19T06:10:47.828Z,1010.4
2017-11-19T06:11:49.469Z,1010.5
2017-11-19T06:12:51.098Z,1010.5
2017-11-19T06:13:53.428Z,1010.4
2017-11-19T06:14:55.063Z,1010.5
2017-11-19T06:15:56.680Z,1010.5
2017-11-19T06:16:58.308Z,1010.5
2017-11-19T06:17:59.918Z,1010.6
2017-11-19T06:19:01.527Z,1010.6
2017-11-19T06:20:03.135Z,1010.6
2017-11-19T06:21:04.748Z,1010.6
2017-11-19T06:22:07.461Z,1010.6
2017-11-19T06:23:09.034Z,1010.6
2017-11-19T06:24:11.017Z,1010.7
2017-11-19T06:25:12.655Z,1010.7
2017-11-19T06:26:15.020Z,1010.7
2017-11-19T06:27:16.591Z,1010.8
2017-11-19T06:28:18.509Z,1010.7
2017-11-19T06:29:20.116Z,1010.7
2017-11-19T06:30:21.743Z,1010.7
2017-11-19T06:31:23.356Z,1010.8
2017-11-19T06:32:24.974Z,1010.8
2017-11-19T06:33:26.582Z,1010.8
2017-11-19T06:34:28.190Z,1010.8
2017-11-19T06:35:29.800Z,1010.8
2017-11-19T06:36:31.408Z,1010.8
2017-11-19T06:37:33.014Z,1010.8
2017-11-19T06:38:34.628Z,1010.7
2017-11-19T06:39:36.237Z,1010.8
2017-11-19T06:40:38.840Z,1010.8
2017-11-19T06:41:40.525Z,1010.8
2017-11-19T06:42:42.143Z,1010.8
2017-11-19T06:43:43.745Z,1010.9
2017-11-19T06:44:45.354Z,1010.9
2017-11-19T06:45:46.963Z,1010.8
2017-11-19T06:46:48.576Z,1010.8
2017-11-19T06:47:50.192Z,1010.8
2017-11-19T06:48:51.864Z,1010.8
2017-11-19T06:49:53.516Z,1010.9
2017-11-19T06:50:55.128Z,1010.9
2017-11-19T06:51:56.739Z,1010.9
2017-11-19T06:52:58.393Z,1011.0
2017-11-19T06:54:00.159Z,1011.0
2017-11-19T06:55:01.751Z,1011.0
2017-11-19T06:56:03.360Z,1011.0
2017-11-19T06:57:04.970Z,1011.0
2017-11-19T06:58:06.579Z,1011.1
2017-11-19T06:59:08.191Z,1011.1
2017-11-19T07:00:09.803Z,1011.2
2017-11-19T07:01:11.413Z,1011.2
2017-11-19T07:02:13.022Z,1011.2
2017-11-19T07:03:14.631Z,1011.2
2017-11-19T07:04:16.243Z,1011.2
2017-11-19T07:05:17.854Z,1011.1
2017-11-19T07:06:19.465Z,1011.2
2017-11-19T07:07:21.079Z,1011.2
2017-11-19T07:08:22.691Z,1011.2
2017-11-19T07:09:24.302Z,1011.1
2017-11-19T07:10:25.910Z,1011.1
2017-11-19T07:11:27.520Z,1011.1
2017-11-19T07:12:29.132Z,1011.1
2017-11-19T07:13:30.772Z,1011.1
2017-11-19T07:14:32.427Z,1011.1
2017-11-19T07:15:34.031Z,1011.2
2017-11-19T07:16:35.642Z,1011.2
2017-11-19T07:17:37.255Z,1011.1
2017-11-19T07:18:38.868Z,1011.1
2017-11-19T07:19:40.481Z,1011.1
2017-11-19T07:20:42.132Z,1011.1
2017-11-19T07:21:43.752Z,1011.1
2017-11-19T07:22:45.360Z,1011.1
2017-11-19T07:23:46.980Z,1011.1
2017-11-19T07:24:48.595Z,1011.1
2017-11-19T07:25:50.205Z,1011.1
2017-11-19T07:26:51.819Z,1011.1
2017-11-19T07:27:53.592Z,1011.2
2017-11-19T07:28:55.712Z,1011.2
2017-11-19T07:29:57.307Z,1011.2
2017-11-19T07:30:58.928Z,1011.2
2017-11-19T07:32:00.784Z,1011.2
2017-11-19T07:33:02.857Z,1011.2
2017-11-19T07:34:04.817Z,1011.2
2017-11-19T07:35:06.447Z,1011.2
2017-11-19T07:36:08.362Z,1011.3
2017-11-19T07:37:09.981Z,1011.3
2017-11-19T07:38:11.602Z,1011.3
2017-11-19T07:39:14.072Z,1011.3
2017-11-19T07:40:15.684Z,1011.3
2017-11-19T07:41:17.758Z,1011.3
2017-11-19T07:42:19.410Z,1011.3
2017-11-19T07:43:21.358Z,1011.3
2017-11-19T07:44:23.024Z,1011.3
2017-11-19T07:45:24.711Z,1011.3
2017-11-19T07:46:27.286Z,1011.3
2017-11-19T07:47:29.018Z,1011.4
2017-11-19T07:48:31.848Z,1011.4
2017-11-19T07:49:34.133Z,1011.5
2017-11-19T07:50:35.797Z,1011.4
2017-11-19T07:51:37.645Z,1011.4
2017-11-19T07:52:39.321Z,1011.4
2017-11-19T07:53:40.939Z,1011.4
2017-11-19T07:54:42.629Z,1011.4
2017-11-19T07:55:44.557Z,1011.4
2017-11-19T07:56:46.199Z,1011.4
2017-11-19T07:57:48.011Z,1011.4
2017-11-19T07:58:49.633Z,1011.4
2017-11-19T07:59:51.302Z,1011.4
2017-11-19T08:00:53.126Z,1011.5
2017-11-19T08:01:54.768Z,1011.5
2017-11-19T08:02:56.411Z,1011.6
2017-11-19T08:03:59.722Z,1011.5
2017-11-19T08:05:01.344Z,1011.6
2017-11-19T08:06:02.959Z,1011.7
2017-11-19T08:07:05.522Z,1011.7
2017-11-19T08:08:07.183Z,1011.7
2017-11-19T08:09:08.800Z,1011.6
2017-11-19T08:10:10.422Z,1011.6
2017-11-19T08:11:12.037Z,1011.6
2017-11-19T08:12:13.657Z,1011.7
2017-11-19T08:13:15.275Z,1011.6
2017-11-19T08:14:16.889Z,1011.6
2017-11-19T08:15:18.503Z,1011.6
2017-11-19T08:16:20.119Z,1011.7
2017-11-19T08:17:23.124Z,1011.7
2017-11-19T08:18:24.750Z,1011.7
2017-11-19T08:19:26.373Z,1011.7
2017-11-19T08:20:28.015Z,1011.7
2017-11-19T08:21:29.607Z,1011.8
2017-11-19T08:22:32.440Z,1011.8
2017-11-19T08:23:34.049Z,1011.8
2017-11-19T08:24:35.667Z,1011.9
2017-11-19T08:25:37.301Z,1011.9
2017-11-19T08:26:38.918Z,1011.8
2017-11-19T08:27:41.292Z,1011.8
2017-11-19T08:28:42.902Z,1011.8
2017-11-19T08:29:44.514Z,1011.8
2017-11-19T08:30:47.780Z,1011.9
2017-11-19T08:31:49.390Z,1011.8
2017-11-19T08:32:51.012Z,1011.8
2017-11-19T08:33:52.628Z,1011.8
2017-11-19T08:34:54.244Z,1011.9
2017-11-19T08:35:57.258Z,1011.9
2017-11-19T08:36:58.873Z,1011.9
2017-11-19T08:38:00.489Z,1012.0
2017-11-19T08:39:03.723Z,1012.0
2017-11-19T08:40:05.341Z,1011.9
2017-11-19T08:41:06.955Z,1011.9
2017-11-19T08:42:08.573Z,1012.0
2017-11-19T08:43:10.188Z,1012.0
2017-11-19T08:44:13.267Z,1011.9
2017-11-19T08:45:14.881Z,1012.0
2017-11-19T08:46:16.499Z,1011.9
2017-11-19T08:47:18.113Z,1011.9
2017-11-19T08:48:19.742Z,1011.9
2017-11-19T08:49:22.964Z,1011.9
2017-11-19T08:50:24.570Z,1012.0
2017-11-19T08:51:26.188Z,1012.1
2017-11-19T08:52:27.803Z,1012.0
2017-11-19T08:53:29.432Z,1012.0
2017-11-19T08:54:31.038Z,1012.3
2017-11-19T08:55:32.654Z,1012.3
2017-11-19T08:56:34.281Z,1012.3
2017-11-19T08:57:36.546Z,1012.1
2017-11-19T08:58:38.161Z,1012.2
2017-11-19T08:59:39.775Z,1012.1
2017-11-19T09:00:41.389Z,1012.1
2017-11-19T09:01:43.008Z,1012.1
2017-11-19T09:02:45.975Z,1012.1
2017-11-19T09:03:47.590Z,1012.2
2017-11-19T09:04:49.204Z,1012.3
2017-11-19T09:05:50.819Z,1012.2
2017-11-19T09:06:52.441Z,1012.1
2017-11-19T09:07:54.836Z,1012.2
2017-11-19T09:08:56.453Z,1012.2
2017-11-19T09:09:58.088Z,1012.2
2017-11-19T09:11:02.004Z,1012.2
2017-11-19T09:12:03.644Z,1012.2
2017-11-19T09:13:05.258Z,1012.2
2017-11-19T09:14:06.874Z,1012.1
2017-11-19T09:15:08.493Z,1012.1
2017-11-19T09:16:11.075Z,1012.2
2017-11-19T09:17:12.694Z,1012.2
2017-11-19T09:18:15.132Z,1012.3
2017-11-19T09:19:16.752Z,1012.3
2017-11-19T09:20:18.367Z,1012.3
2017-11-19T09:21:19.983Z,1012.3
2017-11-19T09:22:21.598Z,1012.3
2017-11-19T09:23:23.219Z,1012.4
2017-11-19T09:24:26.078Z,1012.5
2017-11-19T09:25:27.697Z,1012.5
2017-11-19T09:26:29.317Z,1012.6
2017-11-19T09:27:30.935Z,1012.6
2017-11-19T09:28:32.559Z,1012.5
2017-11-19T09:29:34.727Z,1012.3
2017-11-19T09:30:36.348Z,1012.7
2017-11-19T09:31:37.970Z,1012.9
2017-11-19T09:32:39.586Z,1012.8
2017-11-19T09:33:41.206Z,1012.5
2017-11-19T09:34:43.617Z,1013.3
2017-11-19T09:35:45.235Z,1013.0
2017-11-19T09:36:46.858Z,1013.3
2017-11-19T09:37:48.988Z,1013.0
2017-11-19T09:38:50.068Z,1012.5
2017-11-19T09:39:53.668Z,1012.7
2017-11-19T09:40:57.320Z,1013.3
2017-11-19T09:41:58.943Z,1013.0
2017-11-19T09:43:00.561Z,1013.0
2017-11-19T09:44:04.098Z,1013.1
2017-11-19T09:45:05.718Z,1012.8
2017-11-19T09:46:07.340Z,1012.6
2017-11-19T09:47:08.958Z,1012.6
2017-11-19T09:48:10.576Z,1012.6
2017-11-19T09:49:12.201Z,1012.7
2017-11-19T09:50:13.826Z,1012.7
2017-11-19T09:51:15.447Z,1012.6
2017-11-19T09:52:17.071Z,1012.5
2017-11-19T09:53:18.690Z,1012.6
2017-11-19T09:54:20.308Z,1012.5
2017-11-19T09:55:21.949Z,1012.6
2017-11-19T09:56:23.559Z,1012.6
2017-11-19T09:57:25.180Z,1012.6
2017-11-19T09:58:26.805Z,1012.7
2017-11-19T09:59:28.419Z,1013.0
2017-11-19T10:00:30.054Z,1014.1
2017-11-19T10:01:32.217Z,1014.6
2017-11-19T10:02:33.835Z,1013.2
2017-11-19T10:03:35.453Z,1013.0
2017-11-19T10:04:37.073Z,1012.9
2017-11-19T10:05:38.692Z,1012.9
2017-11-19T10:06:40.310Z,1014.2
2017-11-19T10:07:43.352Z,1013.0
2017-11-19T10:08:45.683Z,1013.1
2017-11-19T10:09:47.300Z,1013.1
2017-11-19T10:10:49.453Z,1013.0
2017-11-19T10:11:51.074Z,1013.1
2017-11-19T10:12:52.690Z,1013.3
2017-11-19T10:13:54.315Z,1013.4
2017-11-19T10:14:55.937Z,1013.3
2017-11-19T10:15:57.748Z,1013.3
2017-11-19T10:16:59.400Z,1013.3
2017-11-19T10:18:01.073Z,1013.5
2017-11-19T10:19:03.537Z,1013.9
2017-11-19T10:20:05.524Z,1013.8
2017-11-19T10:21:07.699Z,1013.2
2017-11-19T10:22:09.321Z,1013.4
2017-11-19T10:23:10.949Z,1013.3
2017-11-19T10:24:12.873Z,1013.7
2017-11-19T10:25:14.905Z,1013.7
2017-11-19T10:26:16.786Z,1014.5
2017-11-19T10:27:18.392Z,1013.6
2017-11-19T10:28:20.051Z,1013.1
2017-11-19T10:29:24.322Z,1013.0
2017-11-19T10:30:25.033Z,1012.9
2017-11-19T10:31:26.960Z,1014.0
2017-11-19T10:32:28.804Z,1013.8
2017-11-19T10:33:30.482Z,1013.5
2017-11-19T10:34:32.385Z,1013.7
2017-11-19T10:35:35.233Z,1013.9
2017-11-19T10:36:36.896Z,1013.9
2017-11-19T10:37:38.752Z,1013.6
2017-11-19T10:38:40.604Z,1013.7
2017-11-19T10:39:43.049Z,1013.8
2017-11-19T10:40:45.568Z,1014.4
2017-11-19T10:41:47.258Z,1013.5
2017-11-19T10:42:48.879Z,1013.3
2017-11-19T10:43:51.011Z,1013.2
2017-11-19T10:44:52.643Z,1013.2
2017-11-19T10:45:54.293Z,1013.3
2017-11-19T10:46:55.915Z,1013.8
2017-11-19T10:47:57.626Z,1013.5
2017-11-19T10:48:59.280Z,1013.8
2017-11-19T10:50:00.973Z,1013.7
2017-11-19T10:51:03.606Z,1013.1
2017-11-19T10:52:05.220Z,1013.2
2017-11-19T10:53:06.851Z,1015.0
2017-11-19T10:54:08.550Z,1015.7
2017-11-19T10:55:10.505Z,1015.1
2017-11-19T10:56:12.704Z,1013.6
2017-11-19T10:57:14.454Z,1014.9
2017-11-19T10:58:16.137Z,1013.8
2017-11-19T10:59:17.876Z,1015.7
2017-11-19T11:00:19.551Z,1015.6
2017-11-19T11:01:21.354Z,1013.8
2017-11-19T11:02:24.851Z,1013.6
2017-11-19T11:03:26.735Z,1013.1
2017-11-19T11:04:28.352Z,1013.0
2017-11-19T11:05:29.985Z,1013.0
2017-11-19T11:06:31.891Z,1013.2
2017-11-19T11:07:35.241Z,1013.1
2017-11-19T11:08:38.141Z,1013.1
2017-11-19T11:09:39.782Z,1012.9
2017-11-19T11:10:41.699Z,1013.3
2017-11-19T11:11:43.623Z,1014.0
2017-11-19T11:12:46.169Z,1013.3
2017-11-19T11:13:47.947Z,1013.2
2017-11-19T11:14:49.662Z,1012.8
2017-11-19T11:15:51.297Z,1012.8
2017-11-19T11:16:52.920Z,1012.8
2017-11-19T11:17:54.559Z,1012.7
2017-11-19T11:18:56.231Z,1012.7
2017-11-19T11:19:58.115Z,1012.7
2017-11-19T11:21:00.655Z,1012.6
2017-11-19T11:22:02.280Z,1012.7
2017-11-19T11:23:04.060Z,1012.7
2017-11-19T11:24:05.725Z,1012.6
2017-11-19T11:25:07.467Z,1012.6
2017-11-19T11:26:09.260Z,1012.6
2017-11-19T11:27:11.079Z,1012.6
2017-11-19T11:28:12.779Z,1012.5
2017-11-19T11:29:14.454Z,1012.6
2017-11-19T11:30:16.196Z,1012.6
2017-11-19T11:31:19.665Z,1013.0
2017-11-19T11:32:21.334Z,1013.3
2017-11-19T11:33:23.038Z,1013.4
2017-11-19T11:34:24.705Z,1013.3
2017-11-19T11:35:26.400Z,1013.3
2017-11-19T11:36:28.063Z,1013.2
2017-11-19T11:37:29.829Z,1013.1
2017-11-19T11:38:31.710Z,1012.7
2017-11-19T11:39:33.373Z,1012.7
2017-11-19T11:40:35.044Z,1012.7
2017-11-19T11:41:39.193Z,1012.7
2017-11-19T11:42:40.910Z,1012.6
2017-11-19T11:43:42.590Z,1012.7
2017-11-19T11:44:44.288Z,1012.8
2017-11-19T11:45:46.083Z,1012.8
2017-11-19T11:46:47.699Z,1013.3
2017-11-19T11:47:49.520Z,1013.2
2017-11-19T11:48:51.367Z,1013.5
2017-11-19T11:49:52.994Z,1013.6
2017-11-19T11:50:54.662Z,1013.6
2017-11-19T11:51:58.501Z,1013.6
2017-11-19T11:53:00.219Z,1013.6
2017-11-19T11:54:01.852Z,1013.6
2017-11-19T11:55:03.499Z,1013.5
2017-11-19T11:56:05.122Z,1013.3
2017-11-19T11:57:07.683Z,1013.8
2017-11-19T11:58:09.305Z,1013.3
2017-11-19T11:59:10.988Z,1013.7
2017-11-19T12:00:12.635Z,1013.6
2017-11-19T12:01:14.288Z,1013.5
2017-11-19T12:02:16.472Z,1013.5
2017-11-19T12:03:18.259Z,1013.5
2017-11-19T12:04:20.335Z,1013.9
2017-11-19T12:05:21.949Z,1013.7
2017-11-19T12:06:23.674Z,1013.7
2017-11-19T12:07:25.295Z,1013.4
2017-11-19T12:08:28.558Z,1013.8
2017-11-19T12:09:30.195Z,1013.5
2017-11-19T12:10:31.827Z,1013.4
2017-11-19T12:11:33.452Z,1013.5
2017-11-19T12:12:35.109Z,1013.2
2017-11-19T12:13:36.757Z,1013.2
2017-11-19T12:14:38.482Z,1013.0
2017-11-19T12:15:40.109Z,1012.8
2017-11-19T12:16:42.045Z,1012.7
2017-11-19T12:17:43.674Z,1012.8
2017-11-19T12:18:45.904Z,1012.8
2017-11-19T12:19:47.708Z,1012.7
2017-11-19T12:20:49.499Z,1012.8
2017-11-19T12:21:51.142Z,1012.7
2017-11-19T12:22:52.797Z,1012.8
2017-11-19T12:23:54.420Z,1012.7
2017-11-19T12:24:56.057Z,1012.6
2017-11-19T12:25:58.302Z,1012.5
2017-11-19T12:27:00.365Z,1012.5
2017-11-19T12:28:01.977Z,1012.5
2017-11-19T12:29:03.601Z,1012.7
2017-11-19T12:30:05.246Z,1012.6
2017-11-19T12:31:06.874Z,1012.5
2017-11-19T12:32:08.494Z,1012.5
2017-11-19T12:33:10.128Z,1012.5
2017-11-19T12:34:11.934Z,1012.5
2017-11-19T12:35:13.575Z,1012.5
2017-11-19T12:36:15.193Z,1012.7
2017-11-19T12:37:16.962Z,1012.6
2017-11-19T12:38:18.582Z,1012.6
2017-11-19T12:39:20.279Z,1012.7
2017-11-19T12:40:21.914Z,1012.8
2017-11-19T12:41:23.530Z,1012.9
2017-11-19T12:42:25.152Z,1012.6
2017-11-19T12:43:26.780Z,1012.7
2017-11-19T12:44:28.394Z,1012.7
2017-11-19T12:45:30.019Z,1012.6
2017-11-19T12:46:31.738Z,1012.6
2017-11-19T12:47:33.399Z,1012.6
2017-11-19T12:48:35.095Z,1012.6
2017-11-19T12:49:36.791Z,1012.7
2017-11-19T12:50:41.715Z,1012.7